Time;durP1;ratioP1;P1;durP2;ratioP2;P2;SDS_P1;SDS_P2;PMS_P1;PMS_P2;Temp;Humidity;BMP_temperature;BMP_pressure;BME280_temperature;BME280_humidity;BME280_pressure;Samples;Min_cycle;Max_cycle;Signal;HPM_P1;HPM_P2
2023/05/26 03:53:01;;;;;;;13.95;8.68;;;;;;;15.62;100.00;100631.94;6603887;26;20219;-87
2023/05/26 03:56:06;;;;;;;12.68;8.52;;;;;;;15.62;100.00;100631.09;6597048;26;34101;-87
2023/05/26 03:59:08;;;;;;;12.93;8.35;;;;;;;15.70;100.00;100630.09;6614115;26;33578;-84
2023/05/26 04:02:12;;;;;;;13.40;8.00;;;;;;;15.78;100.00;100632.63;6595842;26;33972;-83
2023/05/26 04:05:15;;;;;;;15.80;8.80;;;;;;;15.81;100.00;100624.91;6614219;26;34630;-84
2023/05/26 04:08:20;;;;;;;15.60;8.85;;;;;;;15.86;100.00;100637.88;6596793;26;34785;-84
2023/05/26 04:11:25;;;;;;;13.62;8.70;;;;;;;15.93;100.00;100632.44;6613972;26;35237;-83
2023/05/26 04:14:27;;;;;;;18.65;9.10;;;;;;;16.06;100.00;100638.72;6613919;26;33881;-83
2023/05/26 04:17:31;;;;;;;13.73;8.82;;;;;;;16.19;100.00;100637.06;6633465;26;34778;-83
2023/05/26 04:20:34;;;;;;;14.73;8.68;;;;;;;16.26;100.00;100636.03;6613849;26;34056;-83
2023/05/26 04:23:38;;;;;;;12.77;8.30;;;;;;;16.35;100.00;100639.38;6596233;26;33642;-83
2023/05/26 04:26:41;;;;;;;16.00;9.07;;;;;;;16.46;100.00;100644.16;6595976;26;31845;-83
2023/05/26 04:29:45;;;;;;;12.98;8.30;;;;;;;16.63;100.00;100650.00;6596005;26;33959;-83
2023/05/26 04:32:48;;;;;;;16.48;9.20;;;;;;;16.63;100.00;100646.44;6614177;26;34683;-83
2023/05/26 04:35:51;;;;;;;12.43;8.63;;;;;;;16.67;100.00;100644.97;6633264;26;33036;-83
2023/05/26 04:38:54;;;;;;;13.85;8.60;;;;;;;16.83;100.00;100646.44;6604714;26;33796;-83
2023/05/26 04:41:58;;;;;;;14.07;8.52;;;;;;;16.83;100.00;100646.44;6615812;26;33483;-83
2023/05/26 04:45:05;;;;;;;13.70;8.80;;;;;;;16.98;100.00;100642.44;6616970;26;34001;-83
2023/05/26 04:48:09;;;;;;;14.77;9.00;;;;;;;17.10;100.00;100644.50;6634596;26;34173;-83
2023/05/26 04:51:12;;;;;;;16.50;9.40;;;;;;;17.21;100.00;100650.09;6633417;26;33876;-83
2023/05/26 04:54:16;;;;;;;14.40;9.82;;;;;;;17.33;100.00;100653.00;6613863;26;33547;-83
2023/05/26 04:57:18;;;;;;;15.23;9.30;;;;;;;17.32;100.00;100643.16;6633498;26;33981;-83
2023/05/26 05:00:22;;;;;;;13.27;8.68;;;;;;;17.43;100.00;100647.94;6613543;26;33959;-84
2023/05/26 05:03:26;;;;;;;15.35;8.93;;;;;;;17.48;100.00;100649.16;6595630;26;35070;-84
2023/05/26 05:06:30;;;;;;;15.93;9.43;;;;;;;17.59;100.00;100643.03;6633686;26;34427;-84
2023/05/26 05:09:33;;;;;;;13.05;8.57;;;;;;;17.70;100.00;100655.97;6579306;26;34669;-84
2023/05/26 05:12:37;;;;;;;13.85;9.23;;;;;;;17.83;100.00;100655.91;6616537;26;33865;-84
2023/05/26 05:15:41;;;;;;;14.68;9.10;;;;;;;17.90;100.00;100661.31;6614492;26;34254;-84
2023/05/26 05:18:47;;;;;;;13.43;8.80;;;;;;;18.07;100.00;100659.72;6614680;26;34781;-84
2023/05/26 05:21:50;;;;;;;18.02;9.23;;;;;;;18.24;100.00;100661.91;6614168;26;34136;-84
2023/05/26 05:24:53;;;;;;;17.23;8.73;;;;;;;18.29;100.00;100656.66;6595626;26;34014;-83
2023/05/26 05:27:56;;;;;;;15.48;9.18;;;;;;;18.41;100.00;100662.22;6615311;26;34533;-84
2023/05/26 05:30:59;;;;;;;12.63;7.72;;;;;;;18.52;100.00;100658.75;6622913;26;35467;-84
2023/05/26 05:34:03;;;;;;;12.77;7.95;;;;;;;18.51;100.00;100655.19;6617030;26;33813;-84
2023/05/26 05:37:09;;;;;;;11.35;7.82;;;;;;;18.53;100.00;100665.88;6608747;26;35409;-84
2023/05/26 05:40:13;;;;;;;14.27;7.97;;;;;;;18.74;100.00;100664.66;6597385;26;34953;-84
2023/05/26 05:43:16;;;;;;;11.52;8.10;;;;;;;18.92;100.00;100664.69;6596994;26;34746;-84
2023/05/26 05:46:19;;;;;;;13.82;8.32;;;;;;;18.97;100.00;100667.56;6615724;26;33848;-83
2023/05/26 05:49:23;;;;;;;12.73;7.68;;;;;;;19.00;100.00;100664.37;6597486;26;34010;-84
2023/05/26 05:52:25;;;;;;;16.48;8.55;;;;;;;19.15;100.00;100671.37;6635949;26;33979;-84
2023/05/26 05:55:28;;;;;;;15.10;8.13;;;;;;;19.23;100.00;100662.88;6613725;26;35514;-83
2023/05/26 05:58:32;;;;;;;10.95;7.70;;;;;;;19.40;100.00;100671.31;6647845;26;35388;-87
2023/05/26 06:01:36;;;;;;;11.23;8.43;;;;;;;19.39;100.00;100667.75;6645756;26;35151;-88
2023/05/26 06:04:39;;;;;;;17.42;8.35;;;;;;;19.53;99.96;100675.75;6623137;26;35148;-88
2023/05/26 06:07:43;;;;;;;13.62;7.45;;;;;;;19.66;100.00;100686.56;6627964;26;35018;-84
2023/05/26 06:10:46;;;;;;;12.48;8.10;;;;;;;19.94;98.71;100689.50;6611979;26;34418;-84
2023/05/26 06:13:49;;;;;;;13.68;7.78;;;;;;;20.10;96.46;100687.19;6648889;26;34348;-84
2023/05/26 06:16:53;;;;;;;9.45;7.20;;;;;;;20.11;97.39;100683.38;6630457;26;34372;-83
2023/05/26 06:19:56;;;;;;;11.05;7.12;;;;;;;20.32;95.65;100682.84;6602198;26;34621;-84
2023/05/26 06:22:59;;;;;;;12.10;7.15;;;;;;;20.43;94.32;100675.72;6629279;26;33745;-84
2023/05/26 06:26:02;;;;;;;11.50;6.95;;;;;;;20.55;92.97;100675.78;6611416;26;34244;-84
2023/05/26 06:29:07;;;;;;;14.23;7.32;;;;;;;20.65;91.72;100683.38;6629851;26;34458;-85
2023/05/26 06:32:11;;;;;;;12.35;7.43;;;;;;;20.77;89.78;100689.72;6647109;26;33705;-85
2023/05/26 06:35:14;;;;;;;10.75;7.70;;;;;;;20.88;90.56;100694.34;6610035;26;34238;-84
2023/05/26 06:38:19;;;;;;;13.20;7.50;;;;;;;21.05;89.91;100694.44;6611688;26;33682;-85
2023/05/26 06:41:22;;;;;;;14.85;8.25;;;;;;;21.09;88.67;100683.84;6647339;26;34449;-85
2023/05/26 06:44:29;;;;;;;12.00;6.82;;;;;;;21.08;88.93;100690.41;6608473;26;33667;-84
2023/05/26 06:47:32;;;;;;;12.15;6.68;;;;;;;21.24;89.08;100685.03;6606689;26;33903;-85
2023/05/26 06:50:41;;;;;;;12.90;7.00;;;;;;;21.40;89.71;100686.19;6607201;26;34060;-85
2023/05/26 06:53:46;;;;;;;12.70;7.80;;;;;;;21.34;87.41;100695.34;6599893;26;34749;-85
2023/05/26 06:56:48;;;;;;;14.00;8.25;;;;;;;21.50;85.69;100696.56;6614939;26;33833;-85
2023/05/26 06:59:52;;;;;;;11.32;6.90;;;;;;;21.60;84.98;100690.44;6615154;26;33667;-85
2023/05/26 07:02:54;;;;;;;7.85;6.45;;;;;;;21.74;84.83;100694.56;6637700;26;34638;-86
2023/05/26 07:05:58;;;;;;;11.32;6.43;;;;;;;22.01;80.62;100694.81;6615328;26;34304;-85
2023/05/26 07:09:02;;;;;;;9.73;7.15;;;;;;;22.11;78.37;100695.00;6614812;26;34680;-84
2023/05/26 07:12:06;;;;;;;11.65;7.15;;;;;;;22.24;80.98;100698.53;6614836;26;34570;-85
2023/05/26 07:15:10;;;;;;;8.93;6.40;;;;;;;22.32;82.69;100696.22;6634453;26;34484;-85
2023/05/26 07:18:14;;;;;;;12.37;6.30;;;;;;;22.62;80.97;100698.63;6615003;26;33539;-84
2023/05/26 07:21:19;;;;;;;10.50;6.53;;;;;;;22.63;81.32;100694.81;6634426;26;34664;-85
2023/05/26 07:24:22;;;;;;;10.68;6.43;;;;;;;22.88;82.08;100701.78;6614962;26;34360;-84
2023/05/26 07:27:25;;;;;;;11.90;6.30;;;;;;;22.68;79.83;100693.25;6613768;26;33977;-85
2023/05/26 07:30:28;;;;;;;10.57;6.25;;;;;;;22.80;79.14;100696.72;6577895;26;33975;-86
2023/05/26 07:33:31;;;;;;;10.10;6.22;;;;;;;22.97;76.65;100702.22;6614909;26;33918;-85
2023/05/26 07:36:34;;;;;;;8.32;6.60;;;;;;;22.64;78.76;100695.66;6596799;26;34040;-84
2023/05/26 07:39:38;;;;;;;10.48;6.18;;;;;;;22.68;78.11;100702.31;6634162;26;34198;-84
2023/05/26 07:42:42;;;;;;;8.23;5.87;;;;;;;22.84;76.64;100695.13;6596416;26;33938;-85
2023/05/26 07:45:44;;;;;;;9.75;5.60;;;;;;;22.76;69.35;100701.06;6613424;26;33944;-85
2023/05/26 07:48:48;;;;;;;7.87;5.72;;;;;;;22.99;67.06;100700.91;6595421;26;33850;-85
2023/05/26 07:51:51;;;;;;;9.63;6.15;;;;;;;22.99;70.18;100697.28;6613504;26;33676;-85
2023/05/26 07:54:54;;;;;;;9.93;6.50;;;;;;;23.27;71.21;100696.31;6615534;26;33983;-85
2023/05/26 07:58:00;;;;;;;10.43;6.50;;;;;;;23.33;71.51;100697.22;6636110;26;34305;-85
2023/05/26 08:01:03;;;;;;;8.77;5.87;;;;;;;23.43;67.28;100695.44;6639180;26;33814;-89
2023/05/26 08:04:06;;;;;;;8.48;5.65;;;;;;;23.36;67.69;100692.03;6614294;26;34396;-89
2023/05/26 08:07:09;;;;;;;9.43;5.82;;;;;;;23.60;67.12;100694.53;6597859;26;34542;-89
2023/05/26 08:10:12;;;;;;;10.65;5.72;;;;;;;23.76;64.56;100693.66;6633579;26;33899;-90
2023/05/26 08:13:15;;;;;;;10.93;6.25;;;;;;;23.90;65.37;100694.09;6613699;26;34064;-86
2023/05/26 08:16:18;;;;;;;10.75;6.25;;;;;;;23.91;63.60;100704.81;6633812;26;33729;-86
2023/05/26 08:19:21;;;;;;;9.02;6.00;;;;;;;23.85;65.42;100697.63;6613989;26;33870;-86
2023/05/26 08:22:24;;;;;;;10.02;5.93;;;;;;;24.13;65.73;100706.69;6634000;26;34997;-86
2023/05/26 08:25:27;;;;;;;8.70;6.15;;;;;;;23.96;65.28;100693.88;6628427;26;34811;-86
2023/05/26 08:28:30;;;;;;;10.98;6.47;;;;;;;24.17;65.00;100697.66;6597234;26;33742;-85
2023/05/26 08:31:32;;;;;;;8.70;5.85;;;;;;;24.07;64.27;100702.22;6596233;26;34464;-85
2023/05/26 08:34:36;;;;;;;9.15;6.18;;;;;;;24.20;64.41;100701.81;6636625;26;34024;-84
2023/05/26 08:37:38;;;;;;;7.22;5.95;;;;;;;24.48;61.78;100695.22;6598747;26;33867;-83
2023/05/26 08:40:42;;;;;;;10.98;5.80;;;;;;;24.62;61.68;100699.19;6595895;26;33797;-83
2023/05/26 08:43:49;;;;;;;9.65;6.47;;;;;;;24.74;62.66;100699.00;6613762;26;34087;-83
2023/05/26 08:47:11;;;;;;;9.07;6.18;;;;;;;24.48;62.01;100697.97;6632730;26;33852;-83
2023/05/26 08:50:16;;;;;;;9.13;6.35;;;;;;;24.45;61.93;100695.72;6634316;26;33804;-83
2023/05/26 08:53:20;;;;;;;9.32;5.95;;;;;;;24.35;62.23;100692.88;6604057;27;33932;-85
2023/05/26 08:56:23;;;;;;;10.70;6.15;;;;;;;24.27;62.51;100698.84;6611445;27;33605;-86
2023/05/26 08:59:28;;;;;;;8.25;6.15;;;;;;;24.48;63.29;100697.13;6588242;27;33957;-86
2023/05/26 09:02:31;;;;;;;8.63;6.43;;;;;;;24.56;62.82;100693.91;6607341;27;34116;-85
2023/05/26 09:05:34;;;;;;;8.57;6.50;;;;;;;24.64;60.96;100693.44;6569207;27;34261;-85
2023/05/26 09:08:36;;;;;;;11.60;6.40;;;;;;;24.74;60.24;100695.41;6605124;27;35748;-85
2023/05/26 09:11:42;;;;;;;9.23;6.40;;;;;;;24.55;61.63;100690.31;6605946;27;34745;-85
2023/05/26 09:14:55;;;;;;;10.40;6.20;;;;;;;24.72;62.30;100689.34;6588047;27;33971;-85
2023/05/26 09:18:12;;;;;;;12.95;6.43;;;;;;;24.81;61.51;100687.78;6585710;27;34719;-85
2023/05/26 09:21:15;;;;;;;11.23;6.57;;;;;;;24.89;61.94;100688.09;6604762;27;34508;-85
2023/05/26 09:24:20;;;;;;;8.32;6.22;;;;;;;25.14;60.57;100692.13;6586984;27;33553;-85
2023/05/26 09:27:23;;;;;;;9.35;6.20;;;;;;;25.53;60.21;100680.72;6604465;27;33838;-85
2023/05/26 09:30:44;;;;;;;10.40;6.37;;;;;;;25.72;57.85;100675.56;6603191;27;33700;-85
2023/05/26 09:33:48;;;;;;;10.90;5.70;;;;;;;26.15;57.21;100679.81;6606036;27;33795;-87
2023/05/26 09:36:51;;;;;;;9.60;6.43;;;;;;;26.76;57.22;100680.94;6602979;27;33388;-88
2023/05/26 09:40:05;;;;;;;11.52;6.40;;;;;;;26.88;52.46;100675.94;6604398;27;35288;-84
2023/05/26 09:43:09;;;;;;;9.00;6.32;;;;;;;27.16;51.64;100674.50;6606147;27;33878;-84
2023/05/26 09:46:22;;;;;;;10.13;6.55;;;;;;;27.30;50.82;100675.56;6605687;27;34718;-84
2023/05/26 09:49:25;;;;;;;7.20;5.70;;;;;;;27.58;49.81;100676.00;6603657;27;33791;-84
2023/05/26 09:52:29;;;;;;;8.60;6.10;;;;;;;28.03;49.09;100672.16;6585471;27;33805;-85
2023/05/26 09:55:33;;;;;;;8.05;5.82;;;;;;;28.02;47.79;100669.69;6604063;27;33973;-84
2023/05/26 09:58:38;;;;;;;9.38;5.28;;;;;;;27.64;48.31;100662.97;6608090;27;33991;-85
2023/05/26 10:01:43;;;;;;;8.52;5.45;;;;;;;27.44;46.89;100667.50;6605422;27;33454;-85
2023/05/26 10:04:49;;;;;;;8.35;5.55;;;;;;;27.81;44.79;100661.50;6603716;27;33450;-84
2023/05/26 10:07:53;;;;;;;8.93;5.80;;;;;;;27.94;43.56;100656.47;6604221;27;34107;-85
2023/05/26 10:10:56;;;;;;;10.23;5.75;;;;;;;28.05;42.67;100658.03;6586221;27;34009;-84
2023/05/26 10:14:00;;;;;;;11.12;5.40;;;;;;;27.82;44.31;100656.81;6604274;27;34736;-85
2023/05/26 10:17:03;;;;;;;9.20;5.57;;;;;;;28.13;43.70;100659.38;6605759;27;33677;-85
2023/05/26 10:20:08;;;;;;;7.15;5.18;;;;;;;28.30;43.70;100656.19;6604198;27;33893;-85
2023/05/26 10:23:19;;;;;;;8.90;6.10;;;;;;;28.48;42.58;100661.03;6603674;26;33608;-85
2023/05/26 10:26:26;;;;;;;8.07;5.62;;;;;;;27.75;44.69;100664.56;6620908;26;34400;-85
2023/05/26 10:29:55;;;;;;;7.28;5.30;;;;;;;28.33;43.34;100656.44;6605261;27;34322;-85
2023/05/26 10:33:11;;;;;;;7.97;5.30;;;;;;;28.57;42.32;100655.69;6605789;27;33973;-85
2023/05/26 10:36:17;;;;;;;8.18;5.65;;;;;;;28.64;42.41;100653.44;6605637;27;34243;-85
2023/05/26 10:39:21;;;;;;;7.40;5.07;;;;;;;29.46;40.90;100658.91;6605433;27;33617;-85
2023/05/26 10:42:24;;;;;;;7.20;4.87;;;;;;;29.80;38.78;100655.13;6585843;27;33644;-85
2023/05/26 10:45:33;;;;;;;6.03;4.80;;;;;;;29.75;38.80;100641.34;6585423;27;34577;-89
2023/05/26 10:48:39;;;;;;;7.75;4.82;;;;;;;29.84;37.75;100642.31;6603030;27;33974;-85
2023/05/26 10:51:54;;;;;;;7.45;4.68;;;;;;;29.19;37.48;100642.84;6610317;26;33380;-85
2023/05/26 10:55:00;;;;;;;5.62;4.28;;;;;;;29.41;35.92;100649.81;6632319;26;34955;-85
2023/05/26 10:58:28;;;;;;;7.28;4.47;;;;;;;30.05;35.23;100646.41;6632111;26;33909;-85
2023/05/26 11:01:32;;;;;;;5.82;4.57;;;;;;;30.64;33.01;100640.44;6631849;26;33447;-85
2023/05/26 11:04:46;;;;;;;8.15;4.90;;;;;;;30.79;34.56;100636.59;6614429;26;34558;-85
2023/05/26 11:07:55;;;;;;;8.00;4.53;;;;;;;31.02;32.53;100629.19;6645240;26;33565;-85
2023/05/26 11:11:00;;;;;;;5.57;4.35;;;;;;;30.62;32.29;100626.84;6638913;26;33692;-85
2023/05/26 11:14:12;;;;;;;6.30;4.57;;;;;;;30.71;33.37;100624.19;6655902;26;35421;-86
2023/05/26 11:17:17;;;;;;;5.43;4.35;;;;;;;31.87;33.00;100629.59;6639343;26;35480;-85
2023/05/26 11:20:21;;;;;;;5.78;4.32;;;;;;;31.99;31.69;100624.28;6631666;26;33381;-85
2023/05/26 11:23:24;;;;;;;6.72;4.62;;;;;;;32.50;30.25;100629.44;6613148;26;34327;-85
2023/05/26 11:26:30;;;;;;;6.72;4.25;;;;;;;33.91;30.54;100612.78;6594708;26;33969;-85
2023/05/26 11:29:33;;;;;;;5.18;4.32;;;;;;;34.94;26.50;100616.50;6632206;26;33997;-85
2023/05/26 11:32:46;;;;;;;6.18;4.47;;;;;;;36.39;24.75;100612.47;6613826;26;33684;-85
2023/05/26 11:35:48;;;;;;;5.37;4.35;;;;;;;35.57;26.67;100604.62;6634143;26;33548;-85
2023/05/26 11:38:56;;;;;;;5.75;4.03;;;;;;;34.57;27.00;100609.75;6613997;26;34658;-86
2023/05/26 11:42:06;;;;;;;;;;;;;;;34.27;27.99;100606.84;6613676;26;33983;-86
2023/05/26 11:45:09;;;;;;;4.22;3.80;;;;;;;34.30;27.50;100611.75;6634028;26;34928;-85
2023/05/26 11:48:12;;;;;;;8.38;4.28;;;;;;;34.80;26.07;100595.50;6614002;26;33956;-88
2023/05/26 11:51:19;;;;;;;6.80;3.78;;;;;;;34.88;26.37;100584.28;6595400;26;33755;-89
2023/05/26 11:54:22;;;;;;;4.45;3.95;;;;;;;35.39;26.18;100585.13;6634198;26;33526;-90
2023/05/26 11:57:31;;;;;;;7.03;3.95;;;;;;;34.40;26.54;100590.19;6613786;26;34495;-86
2023/05/26 12:00:38;;;;;;;4.85;3.80;;;;;;;35.67;26.53;100576.22;6595835;26;34707;-86
2023/05/26 12:03:45;;;;;;;7.70;3.28;;;;;;;36.97;23.67;100588.00;6632915;26;34548;-86
2023/05/26 12:06:49;;;;;;;5.07;3.37;;;;;;;37.79;20.02;100570.09;6633282;26;33980;-85
2023/05/26 12:10:05;;;;;;;4.82;3.50;;;;;;;39.70;18.87;100568.06;6595784;26;34466;-86
2023/05/26 12:13:08;;;;;;;5.10;3.70;;;;;;;40.36;19.80;100552.84;6633532;26;33551;-86
2023/05/26 12:16:42;;;;;;;5.10;2.95;;;;;;;41.54;18.51;100551.91;6595471;26;34554;-86
2023/05/26 12:19:45;;;;;;;4.70;3.50;;;;;;;42.24;18.17;100557.91;6600069;26;34543;-86
2023/05/26 12:22:52;;;;;;;3.85;3.00;;;;;;;42.88;16.88;100546.38;6614403;26;33883;-86
2023/05/26 12:25:55;;;;;;;3.62;3.30;;;;;;;42.69;17.28;100547.44;6634506;26;35463;-85
2023/05/26 12:29:14;;;;;;;4.60;3.42;;;;;;;41.59;18.72;100536.59;6635439;26;33895;-85
2023/05/26 12:32:17;;;;;;;5.32;3.28;;;;;;;43.00;17.14;100535.53;6633910;26;33914;-86
2023/05/26 12:35:20;;;;;;;6.75;3.60;;;;;;;42.28;17.42;100533.31;6616951;26;34271;-85
2023/05/26 12:38:23;;;;;;;4.47;3.10;;;;;;;42.79;18.16;100522.03;6636757;26;34223;-85
2023/05/26 12:41:26;;;;;;;4.18;3.05;;;;;;;42.83;16.95;100519.25;6637120;26;34972;-86
2023/05/26 12:44:29;;;;;;;5.57;3.55;;;;;;;41.55;17.46;100533.72;6581433;26;33930;-86
2023/05/26 12:47:33;;;;;;;5.15;3.40;;;;;;;42.79;17.45;100521.22;6616206;26;35385;-85
2023/05/26 12:50:36;;;;;;;4.40;3.47;;;;;;;42.62;18.20;100513.38;6635175;26;33941;-85
2023/05/26 12:53:39;;;;;;;6.93;3.75;;;;;;;43.60;17.27;100514.41;6615457;26;33882;-85
2023/05/26 12:56:41;;;;;;;5.50;3.90;;;;;;;41.97;19.35;100515.63;6635581;26;33307;-85
2023/05/26 12:59:45;;;;;;;4.75;3.53;;;;;;;41.35;20.12;100509.62;6643647;26;33763;-86
2023/05/26 13:02:48;;;;;;;7.87;4.30;;;;;;;41.17;21.10;100506.56;6651153;26;34884;-86
2023/05/26 13:05:51;;;;;;;6.97;4.03;;;;;;;42.27;20.18;100495.72;6595422;26;34154;-86
2023/05/26 13:08:56;;;;;;;4.97;3.97;;;;;;;42.57;19.76;100506.09;6595333;26;34839;-86
2023/05/26 13:11:59;;;;;;;5.57;4.10;;;;;;;43.05;19.47;100502.38;6595594;26;33678;-90
2023/05/26 13:15:01;;;;;;;5.40;4.12;;;;;;;44.01;18.49;100493.44;6613386;26;34773;-90
2023/05/26 13:18:05;;;;;;;4.68;3.62;;;;;;;44.06;18.52;100496.69;6613479;26;34737;-90
2023/05/26 13:21:07;;;;;;;4.62;3.53;;;;;;;42.30;19.16;100491.28;6613403;26;33771;-86
2023/05/26 13:24:11;;;;;;;14.25;4.20;;;;;;;44.09;18.43;100483.72;6595268;26;33877;-86
2023/05/26 13:27:14;;;;;;;5.00;4.20;;;;;;;41.10;20.32;100498.81;6633346;26;34849;-86
2023/05/26 13:30:17;;;;;;;6.15;4.50;;;;;;;39.33;22.36;100490.44;6613416;26;34644;-86
2023/05/26 13:33:20;;;;;;;10.23;4.43;;;;;;;36.88;25.46;100491.91;6633551;26;33603;-85
2023/05/26 13:36:24;;;;;;;7.03;4.68;;;;;;;34.51;29.16;100488.03;6633249;26;34833;-85
2023/05/26 13:39:27;;;;;;;4.80;4.28;;;;;;;36.01;28.21;100491.00;6613925;26;34109;-85
2023/05/26 13:42:34;;;;;;;5.32;4.60;;;;;;;36.47;27.29;100486.16;6613883;26;33804;-85
2023/05/26 13:45:37;;;;;;;8.90;4.90;;;;;;;34.79;29.90;100484.78;6578603;26;34089;-85
2023/05/26 13:48:50;;;;;;;7.22;4.60;;;;;;;37.03;26.61;100488.37;6635202;26;33548;-84
2023/05/26 13:51:53;;;;;;;7.28;4.97;;;;;;;37.85;25.36;100484.34;6617352;26;34722;-84
2023/05/26 13:54:56;;;;;;;7.47;4.47;;;;;;;35.81;28.36;100484.31;6613143;26;33644;-85
2023/05/26 13:57:59;;;;;;;6.10;4.97;;;;;;;33.43;32.44;100474.13;6633202;26;33503;-84
2023/05/26 14:01:02;;;;;;;11.15;5.32;;;;;;;32.19;34.06;100481.72;6633411;26;33951;-84
2023/05/26 14:04:05;;;;;;;8.77;4.90;;;;;;;32.90;32.83;100478.03;6608458;26;34178;-85
2023/05/26 14:07:10;;;;;;;6.95;5.28;;;;;;;33.28;32.46;100483.00;6632520;26;34787;-85
2023/05/26 14:10:18;;;;;;;10.77;4.90;;;;;;;33.77;32.42;100464.91;6597040;26;34049;-84
2023/05/26 14:13:21;;;;;;;8.77;5.07;;;;;;;33.86;32.45;100470.50;6613705;26;34300;-84
2023/05/26 14:16:25;;;;;;;6.30;4.87;;;;;;;33.28;33.32;100472.66;6613968;26;33765;-85
2023/05/26 14:19:28;;;;;;;6.62;5.20;;;;;;;32.58;34.93;100480.06;6614272;26;33946;-84
2023/05/26 14:22:31;;;;;;;7.43;5.62;;;;;;;31.47;35.44;100471.56;6613565;26;33537;-84
2023/05/26 14:25:34;;;;;;;8.02;5.18;;;;;;;30.72;37.62;100473.78;6633449;26;33999;-85
2023/05/26 14:28:37;;;;;;;7.20;5.47;;;;;;;30.52;37.80;100473.41;6595662;26;33878;-84
2023/05/26 14:31:40;;;;;;;12.70;5.40;;;;;;;30.26;39.32;100473.91;6613909;26;33809;-84
2023/05/26 14:34:44;;;;;;;6.80;5.45;;;;;;;29.92;40.99;100475.03;6613719;26;34027;-84
2023/05/26 14:37:47;;;;;;;6.68;5.35;;;;;;;29.71;39.63;100469.03;6613393;26;33869;-84
2023/05/26 14:40:50;;;;;;;9.15;5.55;;;;;;;29.52;40.23;100465.47;6632891;26;33601;-84
2023/05/26 14:43:53;;;;;;;7.12;5.35;;;;;;;29.39;41.45;100461.47;6633321;26;33945;-84
2023/05/26 14:46:56;;;;;;;8.48;5.70;;;;;;;29.37;41.73;100463.75;6589426;26;147623;-84
2023/05/26 14:49:59;;;;;;;8.85;5.50;;;;;;;29.20;42.52;100447.66;6613286;26;34178;-84
2023/05/26 14:53:02;;;;;;;7.40;5.53;;;;;;;29.18;43.19;100465.72;6632424;26;34688;-84
2023/05/26 14:56:05;;;;;;;9.00;5.43;;;;;;;29.12;42.54;100451.09;6595062;26;33545;-84
2023/05/26 14:59:08;;;;;;;6.65;5.47;;;;;;;28.93;42.98;100451.91;6613931;26;35097;-85
2023/05/26 15:02:11;;;;;;;6.85;5.70;;;;;;;29.07;41.71;100451.16;6612758;26;34758;-84
2023/05/26 15:05:16;;;;;;;13.85;5.78;;;;;;;28.58;42.67;100450.44;6595647;26;33676;-84
2023/05/26 15:08:19;;;;;;;7.70;5.37;;;;;;;28.39;43.77;100452.28;6634381;26;33881;-84
2023/05/26 15:11:22;;;;;;;7.12;5.12;;;;;;;28.48;42.70;100453.31;6595959;26;35299;-84
2023/05/26 15:14:25;;;;;;;6.30;4.78;;;;;;;28.16;42.77;100463.06;6634010;26;33927;-84
2023/05/26 15:17:28;;;;;;;7.80;5.22;;;;;;;28.00;41.50;100461.56;6596320;26;33945;-88
2023/05/26 15:20:33;;;;;;;22.05;5.03;;;;;;;27.94;42.47;100455.28;6633978;26;33767;-88
2023/05/26 15:23:36;;;;;;;8.13;5.68;;;;;;;27.62;42.43;100461.34;6633549;26;34696;-85
2023/05/26 15:26:39;;;;;;;7.90;5.12;;;;;;;27.31;42.87;100457.97;6634478;26;34502;-85
2023/05/26 15:29:43;;;;;;;7.35;5.70;;;;;;;27.12;43.80;100457.81;6636476;26;34165;-85
2023/05/26 15:32:46;;;;;;;7.57;5.80;;;;;;;26.94;45.17;100458.47;6623091;26;33960;-84
2023/05/26 15:35:50;;;;;;;11.60;5.82;;;;;;;26.76;45.96;100455.25;6615383;26;33613;-84
2023/05/26 15:38:53;;;;;;;6.55;5.30;;;;;;;26.74;45.83;100453.91;6634389;26;33830;-85
2023/05/26 15:41:56;;;;;;;6.03;4.90;;;;;;;26.58;46.23;100455.88;6634107;26;32833;-85
2023/05/26 15:45:04;;;;;;;7.57;5.30;;;;;;;26.42;45.94;100455.91;6635512;26;33863;-84
2023/05/26 15:48:07;;;;;;;8.03;5.97;;;;;;;26.21;46.49;100457.09;6597390;26;34783;-84
2023/05/26 15:51:10;;;;;;;6.87;5.35;;;;;;;26.11;47.78;100451.59;6613832;26;34219;-84
2023/05/26 15:54:13;;;;;;;8.88;5.37;;;;;;;25.99;47.45;100449.97;6634074;26;33899;-84
